Green Bay, WI

5:04 PM CST en Diciembre 18, 2014 (GMT -0600)
Nicolet Airfield | Change Station
CLOSE
Current Station
Estación meteorológica personal
Location: Green Bay, WI
Altura: 791 ft
Estaciones meteorológicas cercanas

Alt 791 ft 44.51 °N, 87.86 °W | Updated 18 seconds ago

Despejado
Despejado
22.1 ° F
Sensación térmica 22 ° F
N
0.0
Viento Variable Viento desde ONO
Gusts 1.0 mph

Hoy
Alta -- | Baja -- ° F
--% Posibilidad de precipitaciones
Ayer
Alta -- | Baja -- ° F
Precip. -- pul
7:23 AM 4:12 PM
Creciente menguante, 12% visible
Presión 30.28 pul
Visibilidad 10.0 Millas
Nubes Despejado
Vientos helados 22 ° F
Punto de rocío 19 ° F
Humedad 89%
Precipitaciones 0.00 pul
Espesor de la nieve No disponible.
UV 0 de una escala de 12
Polen .10 de una escala de 12
Calidad del aire No disponible.
Flu Activity No disponible.
METAR KGRB 182253Z 00000KT 10SM CLR M04/M06 A3025 RMK AO2 SLP253 T10391061

More Conditions Fewer Conditions

Presión 30.28 pul
Visibilidad 10.0 Millas
Nubes Despejado
Vientos helados 22 ° F
Punto de rocío 19 ° F
Humedad 89%
Precipitaciones 0.00 pul
Espesor de la nieve No disponible.
UV 0 de una escala de 12
Polen .10 de una escala de 12
Calidad del aire No disponible.
Flu Activity No disponible.
METAR KGRB 182253Z 00000KT 10SM CLR M04/M06 A3025 RMK AO2 SLP253 T10391061

More Conditions Fewer Conditions

10-Day Weather Forecast

Almanac

Astronomía

Dec. 18, 2014 Salida Puesta
Hora real
Crepúsculo civil
Crepúsculo náutico
Crepúsculo astronómico
Luna
Horas de luz
Horas de luz
Tomorrow will be .
, % of the Moon is Illuminated

Extremos de hoy

Máximos del estado Bajos del estado

Community

WunderPhotos

Upload Photos

1,779,014 ¡fotos cargadas!

WunderBlogs® & News

Nearby

Calidad del aire

  Calidad del aire Índice AQ Contaminante
Not available.

Grosos de nieve

Estación Profundido Altura

Actividad de terremotos

Ciudad Distance Mag. Tiempo y dato
Magnitud mínima muestra es 2,5.

Temperaturas de aguas costeras

Lugar Temperatura

Estaciones meteorológicas cercanas